VOE773 LFPO-LFRB
Flight info
| Callsign | VOE773 |
|---|---|
| Flight time | 0h 54m |
| Altitude | 30000 |
| Route | LGL UN491 UPALO/N0443F290 UN585 FEJAC DCT BADUR/N0372F180 T120 ANLEV |
| Aircraft | A320/M-SDE3FGHIRWY/LB1 |
Departure
| Time | 2026-05-04 18:40 |
|---|---|
| Airport | Paris-Orly Airport (LFPO) |
Arrival
| Time | 2026-05-04 19:34 |
|---|---|
| Airport | Brest Bretagne airport (LFRB) |
| Time | Latitude | Longitude | Altitude | Speed | Heading |
|---|---|---|---|---|---|
| 2026-05-04 18:28 | 48.72566 | 2.36078 | 297 ft | 0 kts | 357° |
| 2026-05-04 18:33 | 48.72563 | 2.36078 | 294 ft | 3 kts | 356° |
| 2026-05-04 18:34 | 48.72537 | 2.36084 | 294 ft | 4 kts | 340° |
| 2026-05-04 18:34 | 48.72513 | 2.36103 | 298 ft | 4 kts | 319° |
| 2026-05-04 18:34 | 48.72497 | 2.36133 | 299 ft | 4 kts | 288° |
| 2026-05-04 18:34 | 48.72494 | 2.36162 | 299 ft | 0 kts | 254° |
| 2026-05-04 18:37 | 48.72494 | 2.36160 | 299 ft | 2 kts | 254° |
| 2026-05-04 18:37 | 48.72477 | 2.36071 | 295 ft | 14 kts | 254° |
| 2026-05-04 18:37 | 48.72472 | 2.35899 | 294 ft | 18 kts | 277° |
| 2026-05-04 18:38 | 48.72469 | 2.35712 | 297 ft | 18 kts | 253° |
| 2026-05-04 18:38 | 48.72391 | 2.35628 | 296 ft | 15 kts | 166° |
| 2026-05-04 18:38 | 48.72300 | 2.35621 | 295 ft | 12 kts | 200° |
| 2026-05-04 18:38 | 48.72222 | 2.35605 | 295 ft | 14 kts | 167° |
| 2026-05-04 18:39 | 48.72114 | 2.35646 | 294 ft | 16 kts | 166° |
| 2026-05-04 18:39 | 48.72025 | 2.35762 | 295 ft | 18 kts | 121° |
| 2026-05-04 18:39 | 48.71965 | 2.35929 | 294 ft | 17 kts | 111° |
| 2026-05-04 18:39 | 48.72001 | 2.36184 | 297 ft | 48 kts | 74° |
| 2026-05-04 18:40 | 48.72155 | 2.37015 | 295 ft | 113 kts | 74° |
| 2026-05-04 18:40 | 48.72417 | 2.38431 | 301 ft | 164 kts | 74° |
| 2026-05-04 18:40 | 48.72746 | 2.40218 | 660 ft | 178 kts | 73° |
| 2026-05-04 18:40 | 48.73078 | 2.42012 | 1411 ft | 176 kts | 73° |
| 2026-05-04 18:41 | 48.73407 | 2.43793 | 2115 ft | 177 kts | 74° |
| 2026-05-04 18:41 | 48.73755 | 2.45680 | 2471 ft | 197 kts | 74° |
| 2026-05-04 18:41 | 48.74046 | 2.47869 | 2796 ft | 218 kts | 87° |
| 2026-05-04 18:41 | 48.74096 | 2.50223 | 3183 ft | 238 kts | 86° |
| 2026-05-04 18:42 | 48.74185 | 2.52843 | 3681 ft | 256 kts | 86° |
| 2026-05-04 18:42 | 48.74267 | 2.55597 | 4510 ft | 262 kts | 92° |
| 2026-05-04 18:42 | 48.73713 | 2.58213 | 5326 ft | 268 kts | 126° |
| 2026-05-04 18:42 | 48.72245 | 2.59928 | 6167 ft | 273 kts | 160° |
| 2026-05-04 18:43 | 48.70356 | 2.60116 | 6988 ft | 279 kts | 193° |
| 2026-05-04 18:43 | 48.68668 | 2.58679 | 7766 ft | 285 kts | 227° |
| 2026-05-04 18:43 | 48.67638 | 2.56119 | 8570 ft | 288 kts | 250° |
| 2026-05-04 18:43 | 48.67077 | 2.53134 | 9411 ft | 291 kts | 255° |
| 2026-05-04 18:44 | 48.66585 | 2.50197 | 10167 ft | 296 kts | 256° |
| 2026-05-04 18:44 | 48.66250 | 2.48146 | 10360 ft | 311 kts | 256° |
| 2026-05-04 18:44 | 48.65530 | 2.43684 | 10633 ft | 341 kts | 256° |
| 2026-05-04 18:44 | 48.64966 | 2.40173 | 11117 ft | 352 kts | 256° |
| 2026-05-04 18:45 | 48.64383 | 2.36555 | 11785 ft | 356 kts | 256° |
| 2026-05-04 18:45 | 48.63792 | 2.32900 | 12480 ft | 360 kts | 256° |
| 2026-05-04 18:45 | 48.63206 | 2.29204 | 13173 ft | 364 kts | 258° |
| 2026-05-04 18:45 | 48.62944 | 2.25377 | 13844 ft | 368 kts | 270° |
| 2026-05-04 18:46 | 48.63169 | 2.21519 | 14485 ft | 371 kts | 278° |
| 2026-05-04 18:46 | 48.63574 | 2.17652 | 15103 ft | 374 kts | 278° |
| 2026-05-04 18:46 | 48.63975 | 2.13759 | 15746 ft | 376 kts | 278° |
| 2026-05-04 18:46 | 48.64371 | 2.09843 | 16377 ft | 378 kts | 278° |
| 2026-05-04 18:47 | 48.64761 | 2.05949 | 16992 ft | 381 kts | 278° |
| 2026-05-04 18:47 | 48.65159 | 2.01978 | 17613 ft | 383 kts | 278° |
| 2026-05-04 18:47 | 48.65555 | 1.97986 | 18218 ft | 386 kts | 278° |
| 2026-05-04 18:47 | 48.65955 | 1.93944 | 18753 ft | 389 kts | 278° |
| 2026-05-04 18:48 | 48.66384 | 1.89886 | 19269 ft | 392 kts | 281° |
| 2026-05-04 18:48 | 48.67134 | 1.85907 | 19775 ft | 396 kts | 287° |
| 2026-05-04 18:48 | 48.67970 | 1.81921 | 20291 ft | 399 kts | 287° |
| 2026-05-04 18:48 | 48.68808 | 1.77906 | 20797 ft | 402 kts | 287° |
| 2026-05-04 18:49 | 48.69645 | 1.73862 | 21317 ft | 405 kts | 286° |
| 2026-05-04 18:49 | 48.70492 | 1.69763 | 21772 ft | 409 kts | 286° |
| 2026-05-04 18:49 | 48.71347 | 1.65624 | 22223 ft | 413 kts | 286° |
| 2026-05-04 18:49 | 48.72195 | 1.61516 | 22671 ft | 416 kts | 285° |
| 2026-05-04 18:50 | 48.73058 | 1.57317 | 23127 ft | 419 kts | 285° |
| 2026-05-04 18:50 | 48.73924 | 1.53089 | 23560 ft | 422 kts | 285° |
| 2026-05-04 18:50 | 48.74696 | 1.48797 | 23932 ft | 423 kts | 279° |
| 2026-05-04 18:50 | 48.75047 | 1.44374 | 24319 ft | 423 kts | 272° |
| 2026-05-04 18:51 | 48.75249 | 1.39915 | 24709 ft | 424 kts | 272° |
| 2026-05-04 18:51 | 48.75455 | 1.35448 | 25088 ft | 425 kts | 272° |
| 2026-05-04 18:51 | 48.75666 | 1.30972 | 25476 ft | 426 kts | 272° |
| 2026-05-04 18:51 | 48.75881 | 1.26481 | 25864 ft | 427 kts | 272° |
| 2026-05-04 18:52 | 48.76094 | 1.21983 | 26230 ft | 429 kts | 272° |
| 2026-05-04 18:52 | 48.76301 | 1.17469 | 26587 ft | 430 kts | 271° |
| 2026-05-04 18:52 | 48.76506 | 1.12934 | 26934 ft | 431 kts | 271° |
| 2026-05-04 18:52 | 48.76708 | 1.08381 | 27279 ft | 433 kts | 271° |
| 2026-05-04 18:53 | 48.76908 | 1.03826 | 27616 ft | 434 kts | 271° |
| 2026-05-04 18:53 | 48.77109 | 0.99258 | 27940 ft | 436 kts | 271° |
| 2026-05-04 18:53 | 48.77312 | 0.94667 | 28251 ft | 437 kts | 271° |
| 2026-05-04 18:53 | 48.77512 | 0.90068 | 28548 ft | 438 kts | 271° |
| 2026-05-04 18:54 | 48.77711 | 0.85452 | 28841 ft | 440 kts | 270° |
| 2026-05-04 18:54 | 48.77911 | 0.80804 | 29037 ft | 444 kts | 270° |
| 2026-05-04 18:54 | 48.78114 | 0.76115 | 29270 ft | 446 kts | 270° |
| 2026-05-04 18:54 | 48.78315 | 0.71420 | 29520 ft | 447 kts | 270° |
| 2026-05-04 18:55 | 48.78512 | 0.66707 | 29768 ft | 449 kts | 270° |
| 2026-05-04 18:55 | 48.78896 | 0.57317 | 29957 ft | 440 kts | 270° |
| 2026-05-04 18:55 | 48.79080 | 0.52715 | 29955 ft | 437 kts | 270° |
| 2026-05-04 18:56 | 48.79587 | 0.43538 | 29970 ft | 437 kts | 272° |
| 2026-05-04 18:56 | 48.80215 | 0.34337 | 29955 ft | 440 kts | 271° |
| 2026-05-04 18:57 | 48.80823 | 0.25165 | 29957 ft | 440 kts | 271° |
| 2026-05-04 18:57 | 48.81398 | 0.15925 | 29963 ft | 439 kts | 271° |
| 2026-05-04 18:58 | 48.81953 | 0.06695 | 29961 ft | 439 kts | 271° |
| 2026-05-04 18:58 | 48.82502 | -0.02531 | 29995 ft | 439 kts | 270° |
| 2026-05-04 18:59 | 48.83048 | -0.11770 | 29966 ft | 440 kts | 269° |
| 2026-05-04 18:59 | 48.83584 | -0.21018 | 29956 ft | 440 kts | 269° |
| 2026-05-04 19:00 | 48.84101 | -0.30268 | 29955 ft | 440 kts | 269° |
| 2026-05-04 19:00 | 48.84595 | -0.39528 | 29964 ft | 440 kts | 269° |
| 2026-05-04 19:01 | 48.85084 | -0.48791 | 29965 ft | 440 kts | 269° |
| 2026-05-04 19:01 | 48.85561 | -0.57989 | 29971 ft | 440 kts | 269° |
| 2026-05-04 19:02 | 48.86038 | -0.67262 | 29974 ft | 440 kts | 269° |
| 2026-05-04 19:02 | 48.86508 | -0.76514 | 29962 ft | 440 kts | 269° |
| 2026-05-04 19:03 | 48.86970 | -0.85784 | 29960 ft | 440 kts | 268° |
| 2026-05-04 19:03 | 48.87423 | -0.95050 | 29972 ft | 440 kts | 268° |
| 2026-05-04 19:04 | 48.87870 | -1.04316 | 29966 ft | 440 kts | 268° |
| 2026-05-04 19:04 | 48.88305 | -1.13587 | 29966 ft | 440 kts | 268° |
| 2026-05-04 19:05 | 48.88734 | -1.22857 | 29968 ft | 440 kts | 268° |
| 2026-05-04 19:05 | 48.89156 | -1.32139 | 30002 ft | 440 kts | 268° |
| 2026-05-04 19:06 | 48.89574 | -1.41423 | 29972 ft | 441 kts | 267° |
| 2026-05-04 19:06 | 48.89983 | -1.50677 | 29965 ft | 442 kts | 267° |
| 2026-05-04 19:07 | 48.90391 | -1.59998 | 29961 ft | 442 kts | 267° |
| 2026-05-04 19:07 | 48.90787 | -1.69324 | 29962 ft | 442 kts | 267° |
| 2026-05-04 19:08 | 48.90496 | -1.78515 | 29991 ft | 430 kts | 251° |
| 2026-05-04 19:08 | 48.89087 | -1.87302 | 29969 ft | 428 kts | 249° |
| 2026-05-04 19:09 | 48.87653 | -1.96097 | 29964 ft | 429 kts | 249° |
| 2026-05-04 19:09 | 48.86220 | -2.04895 | 29963 ft | 430 kts | 249° |
| 2026-05-04 19:10 | 48.84784 | -2.13651 | 29968 ft | 430 kts | 249° |
| 2026-05-04 19:10 | 48.83336 | -2.22462 | 29985 ft | 431 kts | 249° |
| 2026-05-04 19:11 | 48.81875 | -2.31296 | 29970 ft | 432 kts | 249° |
| 2026-05-04 19:11 | 48.80402 | -2.40135 | 29971 ft | 433 kts | 249° |
| 2026-05-04 19:12 | 48.78423 | -2.51942 | 29999 ft | 438 kts | 249° |
| 2026-05-04 19:12 | 48.77658 | -2.56459 | 29569 ft | 443 kts | 249° |
| 2026-05-04 19:13 | 48.76885 | -2.61022 | 28247 ft | 451 kts | 250° |
| 2026-05-04 19:13 | 48.76110 | -2.65618 | 27539 ft | 447 kts | 251° |
| 2026-05-04 19:13 | 48.75349 | -2.70148 | 26933 ft | 440 kts | 251° |
| 2026-05-04 19:13 | 48.74596 | -2.74618 | 26326 ft | 435 kts | 251° |
| 2026-05-04 19:14 | 48.73850 | -2.79035 | 25722 ft | 430 kts | 251° |
| 2026-05-04 19:14 | 48.73108 | -2.83404 | 25133 ft | 426 kts | 252° |
| 2026-05-04 19:14 | 48.72365 | -2.87731 | 24551 ft | 423 kts | 252° |
| 2026-05-04 19:14 | 48.71625 | -2.92015 | 23987 ft | 419 kts | 252° |
| 2026-05-04 19:15 | 48.70891 | -2.96265 | 23403 ft | 416 kts | 252° |
| 2026-05-04 19:15 | 48.70160 | -3.00468 | 22858 ft | 411 kts | 252° |
| 2026-05-04 19:15 | 48.69201 | -3.05959 | 22218 ft | 404 kts | 252° |
| 2026-05-04 19:15 | 48.68732 | -3.08730 | 21885 ft | 401 kts | 253° |
| 2026-05-04 19:16 | 48.68071 | -3.12815 | 21418 ft | 398 kts | 253° |
| 2026-05-04 19:16 | 48.67435 | -3.16864 | 20983 ft | 394 kts | 253° |
| 2026-05-04 19:16 | 48.66810 | -3.20877 | 20533 ft | 390 kts | 253° |
| 2026-05-04 19:16 | 48.66188 | -3.24855 | 20077 ft | 387 kts | 253° |
| 2026-05-04 19:17 | 48.65569 | -3.28794 | 19626 ft | 384 kts | 253° |
| 2026-05-04 19:17 | 48.64957 | -3.32656 | 19165 ft | 381 kts | 253° |
| 2026-05-04 19:17 | 48.64336 | -3.36538 | 18706 ft | 379 kts | 253° |
| 2026-05-04 19:17 | 48.63711 | -3.40403 | 18224 ft | 378 kts | 253° |
| 2026-05-04 19:18 | 48.63085 | -3.44247 | 17717 ft | 375 kts | 253° |
| 2026-05-04 19:18 | 48.62463 | -3.48061 | 17248 ft | 372 kts | 253° |
| 2026-05-04 19:18 | 48.61846 | -3.51857 | 16754 ft | 370 kts | 253° |
| 2026-05-04 19:18 | 48.61281 | -3.55645 | 16278 ft | 370 kts | 259° |
| 2026-05-04 19:19 | 48.60955 | -3.59488 | 15797 ft | 368 kts | 261° |
| 2026-05-04 19:19 | 48.60637 | -3.63322 | 15315 ft | 367 kts | 261° |
| 2026-05-04 19:19 | 48.60317 | -3.67137 | 14839 ft | 365 kts | 261° |
| 2026-05-04 19:19 | 48.59995 | -3.70927 | 14358 ft | 364 kts | 261° |
| 2026-05-04 19:20 | 48.59671 | -3.74709 | 13875 ft | 362 kts | 261° |
| 2026-05-04 19:20 | 48.59348 | -3.78474 | 13335 ft | 361 kts | 261° |
| 2026-05-04 19:20 | 48.59026 | -3.82223 | 12848 ft | 358 kts | 261° |
| 2026-05-04 19:20 | 48.58708 | -3.85930 | 12361 ft | 355 kts | 261° |
| 2026-05-04 19:21 | 48.58390 | -3.89614 | 11859 ft | 352 kts | 261° |
| 2026-05-04 19:21 | 48.58078 | -3.93218 | 11372 ft | 350 kts | 261° |
| 2026-05-04 19:21 | 48.57763 | -3.96848 | 10869 ft | 348 kts | 261° |
| 2026-05-04 19:21 | 48.57450 | -4.00445 | 10543 ft | 341 kts | 261° |
| 2026-05-04 19:22 | 48.57146 | -4.03921 | 10420 ft | 327 kts | 261° |
| 2026-05-04 19:22 | 48.56852 | -4.07261 | 10301 ft | 315 kts | 261° |
| 2026-05-04 19:22 | 48.56568 | -4.10481 | 10172 ft | 304 kts | 261° |
| 2026-05-04 19:22 | 48.56289 | -4.13606 | 9936 ft | 298 kts | 261° |
| 2026-05-04 19:23 | 48.56014 | -4.16676 | 9684 ft | 296 kts | 261° |
| 2026-05-04 19:23 | 48.55737 | -4.19759 | 9245 ft | 296 kts | 261° |
| 2026-05-04 19:23 | 48.55463 | -4.22826 | 8948 ft | 290 kts | 261° |
| 2026-05-04 19:23 | 48.55200 | -4.25790 | 8811 ft | 279 kts | 261° |
| 2026-05-04 19:24 | 48.54946 | -4.28646 | 8677 ft | 268 kts | 261° |
| 2026-05-04 19:24 | 48.54705 | -4.31327 | 8510 ft | 249 kts | 261° |
| 2026-05-04 19:24 | 48.54475 | -4.33877 | 8080 ft | 243 kts | 261° |
| 2026-05-04 19:24 | 48.54248 | -4.36380 | 7593 ft | 239 kts | 261° |
| 2026-05-04 19:25 | 48.54024 | -4.38837 | 7269 ft | 239 kts | 261° |
| 2026-05-04 19:25 | 48.53798 | -4.41307 | 6992 ft | 237 kts | 261° |
| 2026-05-04 19:25 | 48.53567 | -4.43785 | 6525 ft | 244 kts | 261° |
| 2026-05-04 19:25 | 48.53324 | -4.46385 | 5850 ft | 256 kts | 261° |
| 2026-05-04 19:26 | 48.53079 | -4.49034 | 5342 ft | 252 kts | 262° |
| 2026-05-04 19:26 | 48.52847 | -4.51581 | 5126 ft | 240 kts | 262° |
| 2026-05-04 19:26 | 48.52566 | -4.54007 | 5035 ft | 228 kts | 253° |
| 2026-05-04 19:26 | 48.52071 | -4.56236 | 4878 ft | 222 kts | 251° |
| 2026-05-04 19:27 | 48.51573 | -4.58416 | 4733 ft | 219 kts | 251° |
| 2026-05-04 19:27 | 48.51077 | -4.60582 | 4597 ft | 218 kts | 251° |
| 2026-05-04 19:27 | 48.50583 | -4.62749 | 4456 ft | 219 kts | 251° |
| 2026-05-04 19:27 | 48.50087 | -4.64921 | 4341 ft | 219 kts | 251° |
| 2026-05-04 19:28 | 48.49593 | -4.67092 | 4223 ft | 219 kts | 251° |
| 2026-05-04 19:28 | 48.48971 | -4.69180 | 4102 ft | 218 kts | 232° |
| 2026-05-04 19:28 | 48.47855 | -4.70618 | 4006 ft | 206 kts | 205° |
| 2026-05-04 19:28 | 48.46500 | -4.71152 | 3744 ft | 199 kts | 179° |
| 2026-05-04 19:29 | 48.45127 | -4.71100 | 3523 ft | 197 kts | 176° |
| 2026-05-04 19:29 | 48.43760 | -4.71053 | 3322 ft | 197 kts | 177° |
| 2026-05-04 19:29 | 48.42398 | -4.70990 | 3209 ft | 195 kts | 172° |
| 2026-05-04 19:29 | 48.41180 | -4.70262 | 3126 ft | 192 kts | 139° |
| 2026-05-04 19:30 | 48.40413 | -4.68674 | 2984 ft | 188 kts | 107° |
| 2026-05-04 19:30 | 48.40177 | -4.66750 | 2828 ft | 187 kts | 97° |
| 2026-05-04 19:30 | 48.39985 | -4.64817 | 2672 ft | 186 kts | 96° |
| 2026-05-04 19:30 | 48.40012 | -4.62914 | 2516 ft | 176 kts | 76° |
| 2026-05-04 19:31 | 48.40370 | -4.61261 | 2399 ft | 155 kts | 70° |
| 2026-05-04 19:31 | 48.40707 | -4.59791 | 2278 ft | 144 kts | 70° |
| 2026-05-04 19:31 | 48.41025 | -4.58397 | 2169 ft | 139 kts | 70° |
| 2026-05-04 19:31 | 48.41336 | -4.57034 | 2073 ft | 136 kts | 70° |
| 2026-05-04 19:32 | 48.41645 | -4.55685 | 1961 ft | 137 kts | 70° |
| 2026-05-04 19:32 | 48.41958 | -4.54327 | 1749 ft | 137 kts | 70° |
| 2026-05-04 19:32 | 48.42272 | -4.52981 | 1591 ft | 136 kts | 69° |
| 2026-05-04 19:32 | 48.42580 | -4.51634 | 1413 ft | 135 kts | 70° |
| 2026-05-04 19:33 | 48.42877 | -4.50299 | 1233 ft | 134 kts | 70° |
| 2026-05-04 19:33 | 48.43174 | -4.48960 | 1017 ft | 135 kts | 69° |
| 2026-05-04 19:33 | 48.43475 | -4.47625 | 839 ft | 136 kts | 69° |
| 2026-05-04 19:33 | 48.43783 | -4.46275 | 670 ft | 137 kts | 69° |
| 2026-05-04 19:34 | 48.44092 | -4.44924 | 487 ft | 136 kts | 68° |
| 2026-05-04 19:34 | 48.44390 | -4.43604 | 319 ft | 134 kts | 69° |
| 2026-05-04 19:34 | 48.44653 | -4.42445 | 315 ft | 85 kts | 71° |
| 2026-05-04 19:34 | 48.44772 | -4.41908 | 336 ft | 41 kts | 71° |
| 2026-05-04 19:35 | 48.44809 | -4.41695 | 336 ft | 15 kts | 103° |
| 2026-05-04 19:35 | 48.44730 | -4.41623 | 333 ft | 9 kts | 161° |
| 2026-05-04 19:35 | 48.44671 | -4.41631 | 331 ft | 8 kts | 217° |
| 2026-05-04 19:35 | 48.44646 | -4.41703 | 331 ft | 8 kts | 251° |
| 2026-05-04 19:36 | 48.44619 | -4.41822 | 332 ft | 17 kts | 252° |
| 2026-05-04 19:36 | 48.44583 | -4.41975 | 329 ft | 9 kts | 239° |
| 2026-05-04 19:36 | 48.44532 | -4.41978 | 332 ft | 7 kts | 161° |
| 2026-05-04 19:36 | 48.44488 | -4.41971 | 329 ft | 6 kts | 197° |
| 2026-05-04 19:37 | 48.44454 | -4.41991 | 313 ft | 5 kts | 200° |
| 2026-05-04 19:37 | 48.44443 | -4.41997 | 308 ft | 0 kts | 201° |